Dream Angel — 3EEV — position and weather

sailwx.info

Track history (hours):
 
Tides and Currents Weather Stations Pressure Air Temp Water Temp Dewpoint Dewpoint Depression Visibility Wind Speed Wind Dir Waves Ship Positions

Dream Angel

Last reported at 2017-Mar-23 10:29 UTC. Time now 2017-Mar-27 10:51 UTC.
Position N 34°56' E 129°20'.

Length 187 m; draft 6.7 m.

Type: Cargo ship. MMSI: 371820000.

Date/timePositionNaut miles runAvg speedWind from/ knotsBaromVisibWave heightAir tempDewpointWater temp
2017-Mar-23 10:29N 34°56' E 129°20'1 0.6
2017-Mar-23 09:33N 34°55' E 129°20'1 0.6
2017-Mar-23 08:33N 34°55' E 129°21'1 0.6
2017-Mar-23 07:33N 34°55' E 129°21'1 0.6
2017-Mar-23 06:32N 34°54' E 129°22'3 0.3
2017-Mar-22 20:21N 34°53' E 129°25'0 0.4
2017-Mar-22 19:33N 34°53' E 129°25'1 0.5
2017-Mar-22 18:24N 34°53' E 129°24'0 0.5
2017-Mar-22 17:32N 34°54' E 129°24'0 0.5
2017-Mar-22 16:33N 34°54' E 129°24'1 0.6
2017-Mar-22 15:32N 34°54' E 129°23'1 0.8
2017-Mar-22 14:30N 34°54' E 129°22'2 1.2
2017-Mar-22 13:11N 34°54' E 129°20'1 1.2
2017-Mar-22 12:33N 34°53' E 129°19'1 1.4
2017-Mar-22 11:33N 34°53' E 129°18'2 1.6
2017-Mar-22 10:33N 34°52' E 129°16'1 1.3
2017-Mar-22 09:31N 34°52' E 129°14'7 7.1
2017-Mar-22 08:33N 34°52' E 129°06'2 1.8
2017-Mar-22 07:34N 34°50' E 129°06'8 7.7
2017-Mar-22 06:32N 34°57' E 129°12'2 1.8
2017-Mar-22 05:33N 34°58' E 129°14'6 1.8
2017-Mar-22 02:05N 35°02' E 129°19'0 0.4
2017-Mar-22 01:20N 35°02' E 129°19'0 0.3
2017-Mar-22 00:29N 35°01' E 129°19'1 0.4
2017-Mar-21 21:11N 35°01' E 129°20'2 3.7
2017-Mar-21 20:31N 34°59' E 129°19'6 0.6
2017-Mar-21 10:33N 35°02' E 129°24'10 8.9
2017-Mar-21 09:26N 34°60' E 129°12'7 8.3
2017-Mar-21 08:33N 35°01' E 129°04'0 0.4
2017-Mar-21 07:33N 35°01' E 129°03'0 0.0
2017-Mar-20 18:24N 35°01' E 129°03'0 0.0
2017-Mar-20 17:25N 35°01' E 129°03'0 0.0
2017-Mar-20 16:34N 35°01' E 129°03'0 0.0
2017-Mar-20 12:34N 35°01' E 129°03'0 0.0
2017-Mar-20 11:30N 35°01' E 129°03'0 0.0
2017-Mar-20 10:21N 35°01' E 129°03'0 0.0
2017-Mar-20 09:27N 35°01' E 129°03'0 0.0
2017-Mar-20 08:24N 35°01' E 129°03'0 0.0
2017-Mar-20 07:30N 35°01' E 129°03'0 0.0
2017-Mar-20 06:30N 35°01' E 129°03'0 0.0
2017-Mar-20 05:33N 35°01' E 129°03'0 0.0
2017-Mar-20 04:27N 35°01' E 129°03'0 0.0
2017-Mar-20 03:33N 35°01' E 129°03'0 0.0
2017-Mar-20 02:33N 35°01' E 129°03'0 0.0
2017-Mar-20 01:30N 35°01' E 129°03'0 0.1
2017-Mar-20 00:21N 35°01' E 129°03'0 0.1
2017-Mar-19 23:19N 35°01' E 129°03'4 5.2
2017-Mar-19 22:33N 34°57' E 129°03'16 2.3
2017-Mar-19 15:30N 34°43' E 128°54'2 0.3
2017-Mar-19 09:19N 34°43' E 128°56'1 0.9
2017-Mar-19 08:33N 34°43' E 128°57'0 0.2
2017-Mar-19 07:33N 34°43' E 128°57'  
Track history (hours):
 
Tides and Currents Weather Stations Pressure Air Temp Water Temp Dewpoint Dewpoint Depression Visibility Wind Speed Wind Dir Waves Ship Positions

Dream Angel

Last reported at 2017-Mar-23 10:29 UTC. Time now 2017-Mar-27 10:51 UTC.
Position N 34°56' E 129°20'.

Length 187 m; draft 6.7 m.

Type: Cargo ship. MMSI: 371820000.

Date/timePositionNaut miles runAvg speedWind from/ knotsBaromVisibWave heightAir tempDewpointWater temp
2017-Mar-23 10:29N 34°56' E 129°20'1 0.6
2017-Mar-23 09:33N 34°55' E 129°20'1 0.6
2017-Mar-23 08:33N 34°55' E 129°21'1 0.6
2017-Mar-23 07:33N 34°55' E 129°21'1 0.6
2017-Mar-23 06:32N 34°54' E 129°22'3 0.3
2017-Mar-22 20:21N 34°53' E 129°25'0 0.4
2017-Mar-22 19:33N 34°53' E 129°25'1 0.5
2017-Mar-22 18:24N 34°53' E 129°24'0 0.5
2017-Mar-22 17:32N 34°54' E 129°24'0 0.5
2017-Mar-22 16:33N 34°54' E 129°24'1 0.6
2017-Mar-22 15:32N 34°54' E 129°23'1 0.8
2017-Mar-22 14:30N 34°54' E 129°22'2 1.2
2017-Mar-22 13:11N 34°54' E 129°20'1 1.2
2017-Mar-22 12:33N 34°53' E 129°19'1 1.4
2017-Mar-22 11:33N 34°53' E 129°18'2 1.6
2017-Mar-22 10:33N 34°52' E 129°16'1 1.3
2017-Mar-22 09:31N 34°52' E 129°14'7 7.1
2017-Mar-22 08:33N 34°52' E 129°06'2 1.8
2017-Mar-22 07:34N 34°50' E 129°06'8 7.7
2017-Mar-22 06:32N 34°57' E 129°12'2 1.8
2017-Mar-22 05:33N 34°58' E 129°14'6 1.8
2017-Mar-22 02:05N 35°02' E 129°19'0 0.4
2017-Mar-22 01:20N 35°02' E 129°19'0 0.3
2017-Mar-22 00:29N 35°01' E 129°19'1 0.4
2017-Mar-21 21:11N 35°01' E 129°20'2 3.7
2017-Mar-21 20:31N 34°59' E 129°19'6 0.6
2017-Mar-21 10:33N 35°02' E 129°24'10 8.9
2017-Mar-21 09:26N 34°60' E 129°12'7 8.3
2017-Mar-21 08:33N 35°01' E 129°04'0 0.4
2017-Mar-21 07:33N 35°01' E 129°03'0 0.0
2017-Mar-20 18:24N 35°01' E 129°03'0 0.0
2017-Mar-20 17:25N 35°01' E 129°03'0 0.0
2017-Mar-20 16:34N 35°01' E 129°03'0 0.0
2017-Mar-20 12:34N 35°01' E 129°03'0 0.0
2017-Mar-20 11:30N 35°01' E 129°03'0 0.0
2017-Mar-20 10:21N 35°01' E 129°03'0 0.0
2017-Mar-20 09:27N 35°01' E 129°03'0 0.0
2017-Mar-20 08:24N 35°01' E 129°03'0 0.0
2017-Mar-20 07:30N 35°01' E 129°03'0 0.0
2017-Mar-20 06:30N 35°01' E 129°03'0 0.0
2017-Mar-20 05:33N 35°01' E 129°03'0 0.0
2017-Mar-20 04:27N 35°01' E 129°03'0 0.0
2017-Mar-20 03:33N 35°01' E 129°03'0 0.0
2017-Mar-20 02:33N 35°01' E 129°03'0 0.0
2017-Mar-20 01:30N 35°01' E 129°03'0 0.1
2017-Mar-20 00:21N 35°01' E 129°03'0 0.1
2017-Mar-19 23:19N 35°01' E 129°03'4 5.2
2017-Mar-19 22:33N 34°57' E 129°03'16 2.3
2017-Mar-19 15:30N 34°43' E 128°54'2 0.3
2017-Mar-19 09:19N 34°43' E 128°56'1 0.9
2017-Mar-19 08:33N 34°43' E 128°57'0 0.2
2017-Mar-19 07:33N 34°43' E 128°57'  

Dump ship's entire track history